createdAt,value
2022-09-23T00:01:15.687Z,6.71
2022-09-23T00:03:46.996Z,6.72
2022-09-23T00:06:19.458Z,6.72
2022-09-23T00:08:49.610Z,6.70
2022-09-23T00:11:20.710Z,6.70
2022-09-23T00:13:51.034Z,6.75
2022-09-23T00:16:20.997Z,6.78
2022-09-23T00:18:50.619Z,6.75
2022-09-23T00:21:19.358Z,6.70
2022-09-23T00:23:47.001Z,6.72
2022-09-23T00:26:18.857Z,6.64
2022-09-23T00:28:47.381Z,6.62
2022-09-23T00:31:17.080Z,6.56
2022-09-23T00:33:45.515Z,6.51
2022-09-23T00:36:16.533Z,6.53
2022-09-23T00:38:45.298Z,6.56
2022-09-23T00:41:15.544Z,6.62
2022-09-23T00:43:45.212Z,6.67
2022-09-23T00:46:17.586Z,6.68
2022-09-23T00:48:46.068Z,6.57
2022-09-23T00:51:19.439Z,6.47
2022-09-23T00:53:48.907Z,6.49
2022-09-23T00:56:17.674Z,6.46
2022-09-23T00:58:47.555Z,6.38
2022-09-23T01:01:15.388Z,6.31
2022-09-23T01:03:45.595Z,6.25
2022-09-23T01:06:15.228Z,6.24
2022-09-23T01:08:45.325Z,6.30
2022-09-23T01:11:26.595Z,6.21
2022-09-23T01:14:07.674Z,6.13
2022-09-23T01:16:41.639Z,6.18
2022-09-23T01:19:25.791Z,6.08
2022-09-23T01:22:01.198Z,6.11
2022-09-23T01:24:47.106Z,6.05
2022-09-23T01:27:33.620Z,6.00
2022-09-23T01:30:43.162Z,5.99
2022-09-23T01:33:19.665Z,6.07
2022-09-23T01:35:58.593Z,6.08
2022-09-23T01:38:36.299Z,5.99
2022-09-23T01:41:12.739Z,5.95
2022-09-23T01:43:48.840Z,5.89
2022-09-23T01:46:22.128Z,5.85
2022-09-23T01:48:55.782Z,5.80
2022-09-23T01:51:27.255Z,5.74
2022-09-23T01:54:04.067Z,5.72
2022-09-23T01:56:37.298Z,5.69
2022-09-23T01:59:11.250Z,5.67
2022-09-23T02:01:45.141Z,5.64
2022-09-23T02:04:22.258Z,5.69
2022-09-23T02:06:57.859Z,5.64
2022-09-23T02:09:29.983Z,5.60
2022-09-23T02:12:04.865Z,5.61
2022-09-23T02:14:37.370Z,5.57
2022-09-23T02:17:12.943Z,5.55
2022-09-23T02:19:46.009Z,5.55
2022-09-23T02:22:19.399Z,5.50
2022-09-23T02:24:47.894Z,5.46
2022-09-23T02:27:22.516Z,5.46
2022-09-23T02:29:57.076Z,5.45
2022-09-23T02:32:33.331Z,5.39
2022-09-23T02:35:11.138Z,5.36
2022-09-23T02:37:44.837Z,5.30
2022-09-23T02:40:23.004Z,5.33
2022-09-23T02:42:58.929Z,5.27
2022-09-23T02:45:27.051Z,5.28
2022-09-23T02:48:03.437Z,5.30
2022-09-23T02:50:32.355Z,5.30
2022-09-23T02:53:01.713Z,5.30
2022-09-23T02:55:32.297Z,5.28
2022-09-23T02:58:01.874Z,5.27
2022-09-23T03:00:40.158Z,5.21
2022-09-23T03:03:23.224Z,5.22
2022-09-23T03:05:55.988Z,5.18
2022-09-23T03:08:36.775Z,5.19
2022-09-23T03:11:07.454Z,5.19
2022-09-23T03:13:44.483Z,5.16
2022-09-23T03:16:22.329Z,5.15
2022-09-23T03:18:58.738Z,5.15
2022-09-23T03:21:32.402Z,5.10
2022-09-23T03:24:03.762Z,5.17
2022-09-23T03:26:36.150Z,5.09
2022-09-23T03:29:06.606Z,5.13
2022-09-23T03:31:35.156Z,5.14
2022-09-23T03:34:10.509Z,5.15
2022-09-23T03:36:54.048Z,5.12
2022-09-23T03:39:30.971Z,5.04
2022-09-23T03:42:02.651Z,5.02
2022-09-23T03:44:31.096Z,4.95
2022-09-23T03:47:00.521Z,4.94
2022-09-23T03:49:34.361Z,4.94
2022-09-23T03:52:02.401Z,4.93
2022-09-23T03:54:30.838Z,4.89
2022-09-23T03:56:59.344Z,4.91
2022-09-23T03:59:27.809Z,4.88
2022-09-23T04:01:56.152Z,4.92
2022-09-23T04:04:23.777Z,4.92
2022-09-23T04:06:52.728Z,4.91
2022-09-23T04:09:20.454Z,4.92
2022-09-23T04:11:49.477Z,4.87
2022-09-23T04:14:17.512Z,4.87
2022-09-23T04:16:45.470Z,4.86
2022-09-23T04:19:13.810Z,4.88
2022-09-23T04:21:42.741Z,4.87
2022-09-23T04:24:12.483Z,4.94
2022-09-23T04:26:40.455Z,4.88
2022-09-23T04:29:08.768Z,4.84
2022-09-23T04:31:36.363Z,4.85
2022-09-23T04:34:04.468Z,4.78
2022-09-23T04:36:32.038Z,4.82
2022-09-23T04:38:59.700Z,4.86
2022-09-23T04:41:29.546Z,4.82
2022-09-23T04:43:58.047Z,4.81
2022-09-23T04:46:26.225Z,4.80
2022-09-23T04:48:53.979Z,4.77
2022-09-23T04:51:23.691Z,4.78
2022-09-23T04:53:52.982Z,4.78
2022-09-23T04:56:22.561Z,4.79
2022-09-23T04:58:52.210Z,4.78
2022-09-23T05:01:24.385Z,4.82
2022-09-23T05:03:53.923Z,4.81
2022-09-23T05:06:22.030Z,4.80
2022-09-23T05:08:51.287Z,4.81
2022-09-23T05:11:19.618Z,4.80
2022-09-23T05:13:48.766Z,4.83
2022-09-23T05:16:18.350Z,4.81
2022-09-23T05:18:47.081Z,4.84
2022-09-23T05:21:16.745Z,4.84
2022-09-23T05:23:48.728Z,4.83
2022-09-23T05:26:16.506Z,4.85
2022-09-23T05:28:44.120Z,4.89
2022-09-23T05:31:19.419Z,4.90
2022-09-23T05:33:51.730Z,4.92
2022-09-23T05:36:20.533Z,4.98
2022-09-23T05:38:49.844Z,5.00
2022-09-23T05:41:18.051Z,5.02
2022-09-23T05:43:47.185Z,5.02
2022-09-23T05:46:16.942Z,5.08
2022-09-23T05:48:45.985Z,5.09
2022-09-23T05:51:17.238Z,5.14
2022-09-23T05:53:45.819Z,5.15
2022-09-23T05:56:14.756Z,5.23
2022-09-23T05:58:42.383Z,5.37
2022-09-23T06:01:11.848Z,5.41
2022-09-23T06:03:39.586Z,5.50
2022-09-23T06:06:08.013Z,5.59
2022-09-23T06:08:37.888Z,5.73
2022-09-23T06:11:08.074Z,5.83
2022-09-23T06:13:38.115Z,5.88
2022-09-23T06:16:07.946Z,6.00
2022-09-23T06:18:36.172Z,5.84
2022-09-23T06:21:04.778Z,5.84
2022-09-23T06:23:32.562Z,5.88
2022-09-23T06:26:06.526Z,5.92
2022-09-23T06:28:37.043Z,5.94
2022-09-23T06:31:12.887Z,6.04
2022-09-23T06:33:42.070Z,6.12
2022-09-23T06:36:11.287Z,6.23
2022-09-23T06:38:40.445Z,6.28
2022-09-23T06:41:09.585Z,6.40
2022-09-23T06:43:37.364Z,6.43
2022-09-23T06:46:08.274Z,6.46
2022-09-23T06:48:36.446Z,6.46
2022-09-23T06:51:07.228Z,6.59
2022-09-23T06:53:35.666Z,6.66
2022-09-23T06:56:05.568Z,6.73
2022-09-23T06:58:36.193Z,6.82
2022-09-23T07:01:05.432Z,6.91
2022-09-23T07:03:32.959Z,7.03
2022-09-23T07:06:01.307Z,7.14
2022-09-23T07:08:31.190Z,7.22
2022-09-23T07:11:00.977Z,7.26
2022-09-23T07:13:29.321Z,7.37
2022-09-23T07:16:00.286Z,7.58
2022-09-23T07:18:34.289Z,7.72
2022-09-23T07:21:09.741Z,7.84
2022-09-23T07:23:38.722Z,7.94
2022-09-23T07:26:07.946Z,8.11
2022-09-23T07:28:36.992Z,8.28
2022-09-23T07:31:09.448Z,8.52
2022-09-23T07:33:39.643Z,8.69
2022-09-23T07:36:09.410Z,9.07
2022-09-23T07:38:42.791Z,9.52
2022-09-23T07:41:14.745Z,10.19
2022-09-23T07:43:44.031Z,10.76
2022-09-23T07:46:16.428Z,11.24
2022-09-23T07:48:45.636Z,11.44
2022-09-23T07:51:17.434Z,11.84
2022-09-23T07:53:48.200Z,12.05
2022-09-23T07:56:17.198Z,12.24
2022-09-23T07:58:44.774Z,12.38
2022-09-23T08:01:14.025Z,12.45
2022-09-23T08:03:41.610Z,12.81
2022-09-23T08:06:11.936Z,13.25
2022-09-23T08:08:43.290Z,13.28
2022-09-23T08:11:14.121Z,13.16
2022-09-23T08:13:42.225Z,14.15
2022-09-23T08:16:10.213Z,14.28
2022-09-23T08:18:39.358Z,14.92
2022-09-23T08:21:06.943Z,14.62
2022-09-23T08:23:34.537Z,15.11
2022-09-23T08:26:03.710Z,15.37
2022-09-23T08:28:33.707Z,15.84
2022-09-23T08:31:01.633Z,16.51
2022-09-23T08:33:29.227Z,16.60
2022-09-23T08:36:02.503Z,16.65
2022-09-23T08:38:31.155Z,17.22
2022-09-23T08:41:07.765Z,17.73
2022-09-23T08:43:37.845Z,18.19
2022-09-23T08:46:10.659Z,18.14
2022-09-23T08:48:42.285Z,18.55
2022-09-23T08:51:16.236Z,19.03
2022-09-23T08:53:45.648Z,19.36
2022-09-23T08:56:15.999Z,18.94
2022-09-23T08:58:57.010Z,19.53
2022-09-23T09:01:30.434Z,19.42
2022-09-23T09:04:01.142Z,19.22
2022-09-23T09:06:52.378Z,19.41
2022-09-23T09:09:27.158Z,19.69
2022-09-23T09:12:03.305Z,19.57
2022-09-23T09:14:38.271Z,19.58
2022-09-23T09:17:09.008Z,20.15
2022-09-23T09:19:55.198Z,19.77
2022-09-23T09:22:41.592Z,20.23
2022-09-23T09:25:20.759Z,20.94
2022-09-23T09:27:48.771Z,21.29
2022-09-23T09:30:17.964Z,21.19
2022-09-23T09:32:49.554Z,21.74
2022-09-23T09:35:25.773Z,21.13
2022-09-23T09:37:55.843Z,21.40
2022-09-23T09:40:23.478Z,21.00
2022-09-23T09:42:51.681Z,21.07
2022-09-23T09:45:28.825Z,21.30
2022-09-23T09:48:06.160Z,21.00
2022-09-23T09:50:49.205Z,21.57
2022-09-23T09:53:23.932Z,20.80
2022-09-23T09:56:06.551Z,21.12
2022-09-23T09:58:43.681Z,21.18
2022-09-23T10:01:20.305Z,21.47
2022-09-23T10:03:48.786Z,21.48
2022-09-23T10:06:23.554Z,21.82
2022-09-23T10:09:14.554Z,20.62
2022-09-23T10:11:42.825Z,20.83
2022-09-23T10:14:17.462Z,21.20
2022-09-23T10:16:47.027Z,21.40
2022-09-23T10:19:26.903Z,22.29
2022-09-23T10:21:59.801Z,22.56
2022-09-23T10:24:32.103Z,22.81
2022-09-23T10:27:02.822Z,22.33
2022-09-23T10:29:32.553Z,23.38
2022-09-23T10:32:25.536Z,21.95
2022-09-23T10:34:56.932Z,22.38
2022-09-23T10:37:45.315Z,23.34
2022-09-23T10:40:35.126Z,23.73
2022-09-23T10:43:40.568Z,22.65
2022-09-23T10:46:33.072Z,23.51
2022-09-23T10:49:23.258Z,22.80
2022-09-23T10:52:05.214Z,23.07
2022-09-23T10:54:45.744Z,23.10
2022-09-23T10:57:41.876Z,23.18
2022-09-23T11:00:22.149Z,23.36
2022-09-23T11:03:24.339Z,23.26
2022-09-23T11:06:02.067Z,22.86
2022-09-23T11:08:49.141Z,22.31
2022-09-23T11:11:30.071Z,23.14
2022-09-23T11:14:15.763Z,22.85
2022-09-23T11:16:58.164Z,23.97
2022-09-23T11:19:45.302Z,23.99
2022-09-23T11:22:37.519Z,23.56
2022-09-23T11:25:28.058Z,24.24
2022-09-23T11:28:13.199Z,24.06
2022-09-23T11:30:50.784Z,24.62
2022-09-23T11:33:38.389Z,24.88
2022-09-23T11:36:10.977Z,25.49
2022-09-23T11:38:43.935Z,24.41
2022-09-23T11:41:26.666Z,24.25
2022-09-23T11:44:01.111Z,24.32
2022-09-23T11:46:37.098Z,23.61
2022-09-23T11:49:14.016Z,23.80
2022-09-23T11:51:50.088Z,23.64
2022-09-23T11:54:21.985Z,24.12
2022-09-23T11:56:54.500Z,24.19
2022-09-23T11:59:40.203Z,24.09
2022-09-23T12:02:22.233Z,23.72
2022-09-23T12:05:01.192Z,23.25
2022-09-23T12:07:34.129Z,23.72
2022-09-23T12:10:04.941Z,23.91
2022-09-23T12:12:40.083Z,24.02
2022-09-23T12:15:14.399Z,23.46
2022-09-23T12:18:10.995Z,23.88
2022-09-23T12:20:51.325Z,24.01
2022-09-23T12:23:35.486Z,24.06
2022-09-23T12:26:06.612Z,23.67
2022-09-23T12:28:37.637Z,23.83
2022-09-23T12:31:11.071Z,24.02
2022-09-23T12:33:40.934Z,23.84
2022-09-23T12:36:11.233Z,24.39
2022-09-23T12:38:40.547Z,24.18
2022-09-23T12:41:21.881Z,24.15
2022-09-23T12:43:55.179Z,23.75
2022-09-23T12:46:26.088Z,23.58
2022-09-23T12:49:03.573Z,23.46
2022-09-23T12:51:32.649Z,23.33
2022-09-23T12:54:25.885Z,23.06
2022-09-23T12:57:05.321Z,22.54
2022-09-23T12:59:48.821Z,22.35
2022-09-23T13:02:27.486Z,22.67
2022-09-23T13:05:21.370Z,22.54
2022-09-23T13:07:50.910Z,22.82
2022-09-23T13:10:28.917Z,22.75
2022-09-23T13:12:57.778Z,22.71
2022-09-23T13:15:30.369Z,22.40
2022-09-23T13:18:25.626Z,22.02
2022-09-23T13:20:56.714Z,22.23
2022-09-23T13:23:25.971Z,22.03
2022-09-23T13:25:56.574Z,21.73
2022-09-23T13:28:32.077Z,21.96
2022-09-23T13:31:03.371Z,22.20
2022-09-23T13:33:37.923Z,22.60
2022-09-23T13:36:12.967Z,22.93
2022-09-23T13:38:40.777Z,22.50
2022-09-23T13:41:13.752Z,22.86
2022-09-23T13:43:44.508Z,23.11
2022-09-23T13:46:17.085Z,23.04
2022-09-23T13:48:46.995Z,22.73
2022-09-23T13:51:25.540Z,22.98
2022-09-23T13:53:55.315Z,23.35
2022-09-23T13:56:24.115Z,23.37
2022-09-23T13:58:52.235Z,23.30
2022-09-23T14:01:24.797Z,22.81
2022-09-23T14:03:52.546Z,22.59
2022-09-23T14:06:21.494Z,22.15
2022-09-23T14:08:51.264Z,21.58
2022-09-23T14:11:20.649Z,21.56
2022-09-23T14:13:54.091Z,21.75
2022-09-23T14:16:25.185Z,22.47
2022-09-23T14:18:57.268Z,22.97
2022-09-23T14:21:33.744Z,22.98
2022-09-23T14:24:13.113Z,22.58
2022-09-23T14:26:42.737Z,22.48
2022-09-23T14:29:14.978Z,22.53
2022-09-23T14:31:43.839Z,22.45
2022-09-23T14:34:42.661Z,22.19
2022-09-23T14:37:41.166Z,21.57
2022-09-23T14:40:14.986Z,21.74
2022-09-23T14:42:45.997Z,21.44
2022-09-23T14:45:17.648Z,21.44
2022-09-23T14:47:49.471Z,21.12
2022-09-23T14:50:39.400Z,21.30
2022-09-23T14:53:37.918Z,21.50
2022-09-23T14:56:14.017Z,21.56
2022-09-23T14:58:49.448Z,21.52
2022-09-23T15:01:43.337Z,21.15
2022-09-23T15:04:17.227Z,21.15
2022-09-23T15:06:51.993Z,20.90
2022-09-23T15:09:27.589Z,20.87
2022-09-23T15:12:01.728Z,20.66
2022-09-23T15:14:38.258Z,20.81
2022-09-23T15:17:16.151Z,20.87
2022-09-23T15:19:44.154Z,20.70
2022-09-23T15:22:12.899Z,20.52
2022-09-23T15:24:46.267Z,20.48
2022-09-23T15:27:35.347Z,20.32
2022-09-23T15:30:15.601Z,20.47
2022-09-23T15:32:44.053Z,20.19
2022-09-23T15:35:15.743Z,20.35
2022-09-23T15:37:43.675Z,20.14
2022-09-23T15:40:20.712Z,20.27
2022-09-23T15:42:51.397Z,20.12
2022-09-23T15:45:22.104Z,19.98
2022-09-23T15:47:52.162Z,20.01
2022-09-23T15:50:20.042Z,20.13
2022-09-23T15:52:47.596Z,19.86
2022-09-23T15:55:22.867Z,19.87
2022-09-23T15:57:51.288Z,19.76
2022-09-23T16:00:19.203Z,19.82
2022-09-23T16:02:49.014Z,19.80
2022-09-23T16:05:24.355Z,19.73
2022-09-23T16:07:53.150Z,19.59
2022-09-23T16:10:24.086Z,19.51
2022-09-23T16:12:54.998Z,19.81
2022-09-23T16:15:25.048Z,19.39
2022-09-23T16:17:52.856Z,19.15
2022-09-23T16:20:20.421Z,19.25
2022-09-23T16:22:53.784Z,19.05
2022-09-23T16:25:25.256Z,19.16
2022-09-23T16:27:55.267Z,18.92
2022-09-23T16:30:22.978Z,18.88
2022-09-23T16:32:51.591Z,18.79
2022-09-23T16:35:19.875Z,18.49
2022-09-23T16:37:47.841Z,18.30
2022-09-23T16:40:20.467Z,18.26
2022-09-23T16:42:51.967Z,18.19
2022-09-23T16:45:22.923Z,18.14
2022-09-23T16:47:52.083Z,18.20
2022-09-23T16:50:22.619Z,17.85
2022-09-23T16:52:55.982Z,17.64
2022-09-23T16:55:25.628Z,17.54
2022-09-23T16:57:54.970Z,17.49
2022-09-23T17:00:40.322Z,17.43
2022-09-23T17:03:25.975Z,17.30
2022-09-23T17:05:55.079Z,17.12
2022-09-23T17:08:23.090Z,16.99
2022-09-23T17:10:58.254Z,16.75
2022-09-23T17:13:28.146Z,16.58
2022-09-23T17:15:55.950Z,16.64
2022-09-23T17:18:23.587Z,16.35
2022-09-23T17:20:59.284Z,16.25
2022-09-23T17:23:28.141Z,16.26
2022-09-23T17:25:55.865Z,16.12
2022-09-23T17:28:23.454Z,16.03
2022-09-23T17:30:57.859Z,15.96
2022-09-23T17:33:25.811Z,15.87
2022-09-23T17:35:54.456Z,15.80
2022-09-23T17:38:27.974Z,15.68
2022-09-23T17:41:00.306Z,15.46
2022-09-23T17:43:28.630Z,15.35
2022-09-23T17:46:02.832Z,15.25
2022-09-23T17:48:33.754Z,15.14
2022-09-23T17:51:03.875Z,15.04
2022-09-23T17:53:33.213Z,14.90
2022-09-23T17:56:04.047Z,14.97
2022-09-23T17:58:33.262Z,15.11
2022-09-23T18:01:02.814Z,14.84
2022-09-23T18:03:32.268Z,14.76
2022-09-23T18:06:07.599Z,14.60
2022-09-23T18:08:35.218Z,14.62
2022-09-23T18:11:12.404Z,14.52
2022-09-23T18:13:40.382Z,14.35
2022-09-23T18:16:09.568Z,14.35
2022-09-23T18:18:37.199Z,14.34
2022-09-23T18:21:06.745Z,14.39
2022-09-23T18:23:34.491Z,14.35
2022-09-23T18:26:02.332Z,14.36
2022-09-23T18:28:34.634Z,14.36
2022-09-23T18:31:02.517Z,14.25
2022-09-23T18:33:31.602Z,14.21
2022-09-23T18:36:01.185Z,14.14
2022-09-23T18:38:29.052Z,13.97
2022-09-23T18:40:58.946Z,13.92
2022-09-23T18:43:33.813Z,13.80
2022-09-23T18:46:06.059Z,13.72
2022-09-23T18:48:53.297Z,13.62
2022-09-23T18:51:23.919Z,13.57
2022-09-23T18:53:57.453Z,13.46
2022-09-23T18:56:27.075Z,13.45
2022-09-23T18:58:55.623Z,13.43
2022-09-23T19:01:24.629Z,13.51
2022-09-23T19:03:56.950Z,13.47
2022-09-23T19:06:25.463Z,13.38
2022-09-23T19:08:54.886Z,13.30
2022-09-23T19:11:23.727Z,13.18
2022-09-23T19:13:56.687Z,13.10
2022-09-23T19:16:25.889Z,13.05
2022-09-23T19:18:54.543Z,12.95
2022-09-23T19:21:24.346Z,12.92
2022-09-23T19:23:54.238Z,12.89
2022-09-23T19:26:25.103Z,12.86
2022-09-23T19:28:54.609Z,12.87
2022-09-23T19:31:24.201Z,12.88
2022-09-23T19:33:56.431Z,12.80
2022-09-23T19:36:28.909Z,12.72
2022-09-23T19:38:58.283Z,12.64
2022-09-23T19:41:28.035Z,12.62
2022-09-23T19:44:00.196Z,12.51
2022-09-23T19:46:27.882Z,12.47
2022-09-23T19:48:55.818Z,12.47
2022-09-23T19:51:23.574Z,12.40
2022-09-23T19:53:52.851Z,12.37
2022-09-23T19:56:20.850Z,12.37
2022-09-23T19:58:52.309Z,12.31
2022-09-23T20:01:20.792Z,12.25
2022-09-23T20:03:49.145Z,12.16
2022-09-23T20:06:18.451Z,12.07
2022-09-23T20:08:46.314Z,12.01
2022-09-23T20:11:16.993Z,11.98
2022-09-23T20:13:47.116Z,11.94
2022-09-23T20:16:17.119Z,11.87
2022-09-23T20:18:45.874Z,11.83
2022-09-23T20:21:15.288Z,11.82
2022-09-23T20:23:43.763Z,11.77
2022-09-23T20:26:28.916Z,11.75
2022-09-23T20:28:59.543Z,11.69
2022-09-23T20:31:28.083Z,11.64
2022-09-23T20:33:58.160Z,11.62
2022-09-23T20:36:26.226Z,11.60
2022-09-23T20:38:54.956Z,11.58
2022-09-23T20:41:22.626Z,11.53
2022-09-23T20:43:53.876Z,11.50
2022-09-23T20:46:24.113Z,11.59
2022-09-23T20:48:51.986Z,11.46
2022-09-23T20:51:19.738Z,11.36
2022-09-23T20:53:51.711Z,11.36
2022-09-23T20:56:20.024Z,11.29
2022-09-23T20:58:48.509Z,11.28
2022-09-23T21:01:16.455Z,11.23
2022-09-23T21:03:47.160Z,11.15
2022-09-23T21:06:16.965Z,11.12
2022-09-23T21:08:45.179Z,11.19
2022-09-23T21:11:15.776Z,11.21
2022-09-23T21:13:46.833Z,11.24
2022-09-23T21:16:16.943Z,11.31
2022-09-23T21:18:46.733Z,11.24
2022-09-23T21:21:14.911Z,11.22
2022-09-23T21:23:43.415Z,11.34
2022-09-23T21:26:12.953Z,11.23
2022-09-23T21:28:41.830Z,11.17
2022-09-23T21:31:11.511Z,11.14
2022-09-23T21:33:39.143Z,11.16
2022-09-23T21:36:09.039Z,11.17
2022-09-23T21:38:37.014Z,11.09
2022-09-23T21:41:07.333Z,11.06
2022-09-23T21:43:38.550Z,11.06
2022-09-23T21:46:08.512Z,11.10
2022-09-23T21:48:37.715Z,11.11
2022-09-23T21:51:08.147Z,11.12
2022-09-23T21:53:37.609Z,11.10
2022-09-23T21:56:07.762Z,11.14
2022-09-23T21:58:37.325Z,11.16
2022-09-23T22:01:08.960Z,11.17
2022-09-23T22:03:36.887Z,11.17
2022-09-23T22:06:06.890Z,11.22
2022-09-23T22:08:38.202Z,11.21
2022-09-23T22:11:07.483Z,11.16
2022-09-23T22:13:35.898Z,11.11
2022-09-23T22:16:06.212Z,11.07
2022-09-23T22:18:33.818Z,11.10
2022-09-23T22:21:01.355Z,11.17
2022-09-23T22:23:28.894Z,11.29
2022-09-23T22:26:03.019Z,11.38
2022-09-23T22:28:50.739Z,11.33
2022-09-23T22:31:36.226Z,11.26
2022-09-23T22:34:04.136Z,11.24
2022-09-23T22:36:31.941Z,11.27
2022-09-23T22:39:00.538Z,11.25
2022-09-23T22:41:29.504Z,11.26
2022-09-23T22:43:58.418Z,11.24
2022-09-23T22:46:26.256Z,11.20
2022-09-23T22:48:53.785Z,11.20
2022-09-23T22:51:22.485Z,11.12
2022-09-23T22:53:50.801Z,11.09
2022-09-23T22:56:19.108Z,11.05
2022-09-23T22:58:48.867Z,11.03
2022-09-23T23:01:16.519Z,10.99
2022-09-23T23:03:45.774Z,11.02
2022-09-23T23:06:13.497Z,11.07
2022-09-23T23:08:41.326Z,11.14
2022-09-23T23:11:10.917Z,11.06
2022-09-23T23:13:41.799Z,11.03
2022-09-23T23:16:12.582Z,11.09
2022-09-23T23:18:42.221Z,11.10
2022-09-23T23:21:12.366Z,11.09
2022-09-23T23:23:41.025Z,11.05
2022-09-23T23:26:11.855Z,10.96
2022-09-23T23:28:39.685Z,10.96
2022-09-23T23:31:08.339Z,10.97
2022-09-23T23:33:37.834Z,11.01
2022-09-23T23:36:07.077Z,11.01
2022-09-23T23:38:35.511Z,10.99
2022-09-23T23:41:03.535Z,10.96
2022-09-23T23:43:31.795Z,10.94
2022-09-23T23:46:00.707Z,10.92
2022-09-23T23:48:29.940Z,10.88
2022-09-23T23:51:00.333Z,10.88
2022-09-23T23:53:31.478Z,10.83
2022-09-23T23:56:02.217Z,10.77
2022-09-23T23:58:30.098Z,10.82
